| Record Date MM/DD/YYYY | Record Julian Date NNN day of the year | Air Temperature Max (Degrees Fahrenheit F) | Time Max Air Temperature HH:MM:SS This is the time of max air temperature standard time. | Air Temperature Min (Degrees Fahrenheit F) | Time Min Air Temperature HH:MM:SS This is the time of min air temperature standard time. | Air Temperature Observed (Degrees Fahrenheit F) This is an instantaneous reading for air temperature at 7:00:00 standard time. | Relative Humidity Max (Percent) | Time Max Relative Humidity HH:MM:SS This is the time of max relative humidity standard time. | Relative Humidity Min (Percent) | Time Min Relative Humidity HH:MM:SS This is the time of min relative humidity standard time. | Relative Humidity Observed (Percent) This is an instantaneous reading at 7:00:00 standard time. | Precipitation (Inches n.nn) total rain fall that occurred for the day. | Pan Evaporation (Inches n.nn) total evaporation that occured for the day. | Wind Run (Miles) Wind travel for the day. | Wind Speed (Miles Per Hour) Resultant / Average speed for the day. | Wind Direction (Degrees) Resultant Direction for the day | Solar Radiation (Langley's) that occurred for the day. | Soil Temperature Max at 2 inch depth (Degrees Fahrenheit F) that occurred during the day. | Time Max Soil temperature at 2 inches HH:MM:SS This is the time of max 2 inch soil temperature standard time. | Soil Temperature Min at 2 inch depth (Degrees Fahrenheit F) that occurred during the day. | Time Min Soil temperature at 2 inches HH:MM:SS This is the time of min 2 inch soil temperature standard time. | Soil Temperature Observed at 2 inch depth (Degrees Fahrenheit F) This is an instantaneous reading 2 inch soil temperature at 7:00:00 standard time. | Soil Temperature Max at 4 inch depth (Degrees Fahrenheit F) that occurred during the day. | Time Max Soil temperature at 4 inches HH:MM:SS This is the time of max 4 inch soil temperature standard time. | Soil Temperature Min at 4 inch depth (Degrees Fahrenheit F) that occurred during the day. | Time Min Soil temperature at 4 inches HH:MM:SS This is the time of min 4 inch soil temperature standard time. | Soil Temperature Observed at 4 inch depth (Degrees Fahrenheit F) This is an instantaneous reading 4 inch soil temperature at 7:00:00 standard time. | DD50 Degree Days 50 Fahrenheit. | Adjusted DD50 Degree Days 50 Fahrenheit adjusted for latitude. | DD60 Degree Days 60 Fahrenheit. |
|---|---|---|---|---|---|---|---|---|---|---|---|---|---|---|---|---|---|---|---|---|---|---|---|---|---|---|---|---|---|---|
| 04/02/2026 | 92 | 84 | 15:39:02 | 69 | 3:44:00 | 70 | 92 | 3:39:05 | 52 | 14:27:02 | 91 | 0 | 252 | 11 | 194 | 279 | 72 | 16:15:03 | 68 | 7:06:00 | 68 | 72 | 16:29:00 | 67 | 7:06:01 | 67 | 26.5 | 26.96 | 16.5 | |
| 04/03/2026 | 93 | 89 | 14:37:00 | 68 | 3:13:04 | 70 | 95 | 3:14:02 | 45 | 14:49:05 | 92 | 0 | 177 | 7 | 184 | 388 | 75 | 15:23:03 | 68 | 6:19:02 | 68 | 75 | 15:39:03 | 68 | 6:37:01 | 68 | 28.5 | 27 | 18.5 | |
| 04/04/2026 | 94 | 79 | 10:52:04 | 58 | 22:09:05 | 71 | 99 | 19:25:02 | 74 | 11:09:03 | 87 | 0.73 | 126 | 5 | 251 | 156 | 72 | 13:48:01 | 67 | 23:59:05 | 69 | 72 | 14:08:01 | 67 | 23:55:02 | 69 | 18.5 | 19.53 | 8.5 | |
| 04/05/2026 | 95 | 65 | 16:28:00 | 51 | 5:53:01 | 52 | 92 | 0:00:05 | 37 | 16:51:02 | 71 | 0 | 205 | 9 | 19 | 534 | 67 | 15:32:02 | 61 | 8:48:04 | 62 | 69 | 15:40:00 | 62 | 8:33:04 | 63 | 8 | 9.06 | 0 | |
| 04/06/2026 | 96 | 72 | 16:04:04 | 42 | 5:27:04 | 49 | 96 | 5:48:01 | 28 | 15:36:02 | 81 | 0 | 96 | 4 | 33 | 515 | 67 | 15:53:04 | 58 | 7:10:00 | 58 | 69 | 16:02:00 | 59 | 7:42:03 | 59 | 7 | 8.09 | 0 | |
| 04/07/2026 | 97 | 77 | 14:40:04 | 47 | 4:04:01 | 55 | 89 | 4:09:01 | 30 | 15:24:02 | 73 | 0 | 106 | 4 | 59 | 501 | 68 | 16:00:02 | 58 | 7:20:04 | 58 | 68 | 16:03:01 | 59 | 7:46:02 | 59 | 12 | 13.13 | 2 | |
| 04/08/2026 | 98 | 82 | 14:28:02 | 53 | 4:55:04 | 58 | 76 | 4:57:00 | 26 | 15:13:00 | 66 | 0 | 119 | 5 | 141 | 511 | 69 | 14:56:04 | 60 | 7:13:03 | 60 | 69 | 15:37:01 | 60 | 7:19:02 | 60 | 17.5 | 18.66 | 7.5 | |
| 04/09/2026 | 99 | 81 | 15:15:03 | 52 | 5:34:02 | 61 | 83 | 5:44:00 | 35 | 16:36:04 | 66 | 0 | 103 | 4 | 150 | 515 | 72 | 15:26:05 | 61 | 7:11:02 | 61 | 71 | 15:56:00 | 61 | 7:38:05 | 61 | 16.5 | 17.69 | 6.5 | |
| 04/10/2026 | 100 | 84 | 15:00:04 | 55 | 4:54:01 | 63 | 85 | 5:03:00 | 35 | 16:39:03 | 73 | 0 | 71 | 3 | 170 | 498 | 74 | 15:15:05 | 63 | 7:05:02 | 63 | 74 | 15:34:05 | 63 | 7:33:02 | 63 | 19.5 | 20.72 | 9.5 | |
| 04/11/2026 | 101 | 86 | 12:47:01 | 56 | 3:10:03 | 65 | 93 | 3:22:02 | 36 | 12:43:03 | 80 | 0 | 60 | 3 | 181 | 429 | 74 | 15:29:03 | 64 | 6:24:05 | 64 | 74 | 15:58:05 | 64 | 7:08:03 | 64 | 21 | 22.26 | 11 | |
| 04/12/2026 | 102 | 88 | 14:54:00 | 60 | 5:06:00 | 66 | 87 | 6:03:04 | 33 | 14:54:03 | 78 | 0 | 189 | 8 | 195 | 452 | 72 | 15:14:03 | 65 | 7:11:05 | 65 | 72 | 15:32:00 | 65 | 7:16:05 | 65 | 24 | 25.29 | 14 | |
| 04/13/2026 | 103 | 85 | 13:26:03 | 68 | 5:25:02 | 70 | 85 | 6:12:05 | 52 | 13:27:01 | 84 | 0 | 160 | 7 | 196 | 327 | 73 | 16:06:02 | 67 | 6:28:01 | 67 | 73 | 16:16:04 | 67 | 7:09:00 | 67 | 26.5 | 27.32 | 16.5 | |
| 04/14/2026 | 104 | 88 | 14:51:03 | 66 | 5:47:05 | 71 | 90 | 5:50:01 | 44 | 16:05:05 | 82 | 0 | 150 | 6 | 203 | 495 | 76 | 14:59:00 | 68 | 6:56:02 | 68 | 76 | 15:42:03 | 68 | 7:03:02 | 68 | 27 | 27.35 | 17 | |
| 04/15/2026 | 105 | 88 | 14:59:03 | 66 | 5:45:00 | 70 | 86 | 5:46:02 | 35 | 14:38:00 | 80 | 0 | 157 | 7 | 202 | 483 | 76 | 14:52:04 | 68 | 7:14:00 | 68 | 77 | 15:37:05 | 68 | 7:31:03 | 68 | 27 | 27.38 | 17 | |
| 04/16/2026 | 106 | 89 | 13:44:04 | 68 | 5:46:00 | 71 | 93 | 5:46:02 | 40 | 13:46:00 | 85 | 0 | 110 | 5 | 208 | 400 | 77 | 14:30:04 | 70 | 6:14:01 | 70 | 77 | 14:47:02 | 70 | 7:00:03 | 70 | 28.5 | 27.41 | 18.5 | |
| 04/17/2026 | 107 | 91 | 15:03:05 | 67 | 5:22:02 | 74 | 91 | 5:43:02 | 40 | 15:03:05 | 78 | 0 | 170 | 7 | 201 | 487 | 77 | 14:38:05 | 69 | 6:18:02 | 69 | 78 | 15:34:05 | 69 | 6:27:03 | 69 | 29 | 27.44 | 19 | |
| 04/18/2026 | 108 | 76 | 8:56:00 | 51 | 23:59:00 | 71 | 97 | 15:31:03 | 71 | 9:04:04 | 83 | 0.13 | 143 | 6 | 304 | 114 | 72 | 0:00:03 | 65 | 23:59:00 | 71 | 73 | 0:00:01 | 66 | 23:59:02 | 71 | 13.5 | 14.97 | 3.5 | |
| 04/19/2026 | 109 | 73 | 16:09:02 | 46 | 23:53:03 | 48 | 100 | 0:29:04 | 26 | 16:46:00 | 93 | 0 | 68 | 3 | 14 | 557 | 71 | 15:52:05 | 62 | 6:57:02 | 62 | 74 | 15:52:04 | 62 | 7:19:03 | 62 | 9.5 | 11 | 0 | |
| 04/20/2026 | 110 | 79 | 14:05:04 | 42 | 5:28:02 | 55 | 99 | 5:36:03 | 23 | 14:08:03 | 79 | 0 | 51 | 2 | 190 | 537 | 73 | 15:10:02 | 60 | 6:41:03 | 60 | 74 | 15:40:03 | 61 | 7:12:02 | 61 | 10.5 | 12.03 | 0.5 | |
| 04/21/2026 | 111 | 84 | 13:49:05 | 47 | 4:14:05 | 58 | 96 | 3:57:00 | 21 | 13:51:00 | 76 | 0 | 83 | 3 | 205 | 451 | 71 | 15:00:02 | 61 | 6:33:00 | 62 | 72 | 15:25:02 | 62 | 7:08:01 | 62 | 15.5 | 17.05 | 5.5 | |
| 04/22/2026 | 112 | 85 | 14:06:02 | 52 | 4:47:01 | 63 | 87 | 5:08:02 | 26 | 14:25:05 | 74 | 0 | 97 | 4 | 184 | 531 | 73 | 15:01:03 | 63 | 6:32:01 | 63 | 74 | 15:49:02 | 63 | 6:46:02 | 63 | 18.5 | 20.08 | 8.5 | |
| 04/23/2026 | 113 | 88 | 14:12:00 | 67 | 5:42:04 | 69 | 84 | 6:18:04 | 33 | 14:40:04 | 83 | 0 | 173 | 7 | 182 | 490 | 75 | 15:06:04 | 67 | 5:39:03 | 67 | 75 | 15:43:01 | 67 | 6:35:00 | 67 | 27.5 | 27.61 | 17.5 | |
| 04/24/2026 | 114 | 82 | 10:51:00 | 61 | 15:31:05 | 68 | 100 | 22:30:00 | 55 | 11:12:00 | 86 | 0.82 | 149 | 6 | 152 | 165 | 72 | 11:28:04 | 66 | 23:59:03 | 68 | 72 | 11:44:05 | 66 | 23:59:05 | 68 | 21.5 | 23.14 | 11.5 | |
| 04/25/2026 | 115 | 83 | 15:21:01 | 60 | 5:32:02 | 63 | 100 | 0:27:04 | 57 | 15:27:03 | 100 | 0.13 | 50 | 2 | 83 | 460 | 77 | 16:05:01 | 65 | 6:34:01 | 65 | 77 | 16:17:05 | 65 | 7:23:05 | 65 | 21.5 | 23.16 | 11.5 | |
| 04/26/2026 | 116 | 85 | 15:36:04 | 66 | 5:50:03 | 71 | 97 | 4:56:00 | 49 | 12:40:02 | 90 | 0.01 | 79 | 3 | 167 | 469 | 79 | 15:49:03 | 71 | 7:11:04 | 71 | 79 | 16:22:02 | 71 | 7:49:02 | 71 | 25.5 | 27.19 | 15.5 | |
| 04/27/2026 | 117 | 84 | 15:44:00 | 72 | 5:16:04 | 73 | 95 | 5:18:04 | 71 | 15:42:00 | 93 | 0 | 200 | 8 | 193 | 254 | 76 | 16:51:03 | 73 | 7:25:05 | 73 | 76 | 17:11:00 | 73 | 7:27:04 | 73 | 28 | 27.72 | 18 | |
| 04/28/2026 | 118 | 80 | 15:32:03 | 71 | 20:49:04 | 73 | 98 | 20:50:02 | 75 | 0:05:00 | 91 | 0.36 | 142 | 6 | 198 | 143 | 75 | 16:27:04 | 73 | 23:53:02 | 73 | 75 | 16:34:05 | 73 | 7:29:00 | 73 | 25.5 | 27.24 | 15.5 | |
| 04/29/2026 | 119 | 73 | 0:00:00 | 61 | 23:35:05 | 70 | 100 | 4:44:03 | 77 | 12:03:00 | 93 | 0.17 | 134 | 6 | 16 | 258 | 73 | 14:36:03 | 69 | 23:59:04 | 72 | 74 | 14:49:02 | 70 | 23:58:00 | 72 | 17 | 18.77 | 7 | |
| 04/30/2026 | 120 | 67 | 12:44:04 | 57 | 5:52:02 | 59 | 95 | 0:14:02 | 54 | 12:48:03 | 78 | 0 | 144 | 6 | 40 | 377 | 69 | 13:43:04 | 66 | 8:31:01 | 66 | 71 | 13:48:02 | 67 | 8:44:02 | 67 | 12 | 13.79 | 2 | |
| 05/01/2026 | 121 | 67 | 15:49:05 | 56 | 5:28:03 | 57 | 85 | 3:15:04 | 50 | 16:25:04 | 77 | 0 | 109 | 5 | 32 | 212 | 66 | 0:00:00 | 63 | 0:00:00 | 64 | 67 | 0:00:00 | 64 | 23:53:04 | 65 | 11.5 | 13.31 | 1.5 | |
| Average | 81.13 | 58.5 | 64.47 | 92.17 | 44.33 | 82.1 | 0.08 | 129.1 | 399.6 | 72.77 | 65.3 | 65.83 | 73.3 | 65.57 | 66 | 19.82 | 20.75 | 10 | ||||||||||||
| Total | 2.35 | 594.5 | 622.35 | 300 |